Reklama

Seznam meteostanic a jejich METAR

Vyhledat místa podle abecedy:
A B C D E F G H I J K L M N O P Q R S T U V W X Y Z

Filtrovat:

ID stanice:
a/nebo
Název místa (fulltext):
 
Místo (ID)Naposledy načteno 
Kadaň - Tušimice (Tusimice) 19.11.2018 00:00 UTC Zobrazit data
Místo: Kadaň - Tušimice
Teplota: 1 °C (pocitová: -3.1 °C)
Vítr: 1 m/s z(e) 260°
Počasí: zataženo
Dohlednost: 30 km
Zákl. oblačnosti: 8/8 450 m
Vlhkost: 65%
Karlovy Vary (K.Vary) 19.11.2018 00:00 UTC Zobrazit data
Místo: Karlovy Vary
Teplota: -1 °C (pocitová: -7.2 °C)
Vítr: 2 m/s z(e) 340°
Počasí: zataženo
Dohlednost: 18 km
Zákl. oblačnosti: 5/8 390 m;5/8 1500 m
Vlhkost: 93%
Kocelovice (Kocelovice) 19.11.2018 00:00 UTC Zobrazit data
Místo: Kocelovice
Teplota: 0 °C (pocitová: -9.2 °C)
Vítr: 5 m/s z(e) 40°
Počasí: zataženo
Dohlednost: 26 km
Zákl. oblačnosti: 8/8 1800 m
Vlhkost: 55%
Kopisty (Kopisty) 18.11.2018 21:00 UTC Zobrazit data
Místo: Kopisty
Teplota: 0 °C (pocitová: 13.1 °C)
Vítr: 0 m/s z(e) 0°
Počasí: skoro zataženo
Dohlednost: 19 km
Zákl. oblačnosti: 4/8 1800 m;3/8 2400 m
Vlhkost: 64%
Kostelní Myslová (K.Myslova) 19.11.2018 00:00 UTC Zobrazit data
Místo: Kostelní Myslová
Teplota: -1 °C (pocitová: -7.2 °C)
Vítr: 2 m/s z(e) 0°
Počasí: sněží
Dohlednost: 14 km
Zákl. oblačnosti: 5/8 960 m;8/8 1500 m
Vlhkost: 86%
Křešín - Kramolín (Kramolin) 19.11.2018 00:00 UTC Zobrazit data
Místo: Křešín - Kramolín
Teplota: -1 °C (pocitová: -7.2 °C)
Vítr: 2 m/s z(e) 330°
Počasí: zataženo
Dohlednost: 35 km
Zákl. oblačnosti: 3/8 1470 m;8/8 2100 m
Vlhkost: 51%
Kuchařovice - Znojmo (Kucharovic) 19.11.2018 00:00 UTC Zobrazit data
Místo: Kuchařovice - Znojmo
Teplota: 0 °C (pocitová: -7.3 °C)
Vítr: 3 m/s z(e) 30°
Počasí: sněží
Dohlednost: 11 km
Zákl. oblačnosti: 8/8 360 m
Vlhkost: 75%
Kabul (OAKB) 18.11.2018 22:50 UTC Zobrazit METAR
OAKB 182250Z 32003KT 9999 SCT070 06/00 Q1022 NOSIG RMK A3020 BLU BLU
Kajaani (EFKI) 18.11.2018 23:50 UTC Zobrazit METAR
EFKI 182350Z AUTO VRB01KT CAVOK M06/M07 Q1040
Kardla (EEKA) 18.11.2018 15:50 UTC Zobrazit METAR
EEKA 181550Z 03014KT 9999 -RA BKN023 05/01 Q1035
Karlsruhe/ Baden-Baden (EDSB) 18.11.2018 21:50 UTC Zobrazit METAR
EDSB 182150Z AUTO 01008KT 9999 // FEW110/// 02/M03 Q1019
Karup (EKKA) 18.11.2018 10:50 UTC Zobrazit METAR
EKKA 181050Z 01004KT 350V090 4000 BR OVC012 05/05 Q1037
Kathmandu (VNKT) 18.11.2018 22:50 UTC Zobrazit METAR
VNKT 182250Z 15003KT 4000 BR FEW015 09/08 Q1020 NOSIG
Katowice (EPKT) 19.11.2018 00:00 UTC Zobrazit METAR
EPKT 190000Z 07002KT 6000 -SN BKN011 OVC018 M01/M05 Q1019
Kaunas (EYKA) 18.11.2018 23:50 UTC Zobrazit METAR
EYKA 182350Z AUTO 05008KT 020V080 9999 OVC016/// 04/01 Q1028
Kavala (LGKV) 18.11.2018 23:50 UTC Zobrazit METAR
LGKV 182350Z 13006KT 7000 RA SCT015 BKN025 OVC060 08/08 Q1008
Kazan (UWKD) Zatím nenačteno  
Kefallinia (LGKF) 17.11.2018 10:50 UTC Zobrazit METAR
LGKF 171050Z 12017KT 9999 FEW014 SCT018 BKN070 17/09 Q1014
Kemi (EFKE) 18.11.2018 23:50 UTC Zobrazit METAR
EFKE 182350Z AUTO 00000KT CAVOK M08/M09 Q1041
Kerkira (LGKR) 18.11.2018 23:50 UTC Zobrazit METAR
LGKR 182350Z 00000KT 9999 FEW030 SCT080 11/11 Q1007 NOSIG
Kerry (EIKY) 18.11.2018 19:00 UTC Zobrazit METAR
EIKY 181900Z 11008KT CAVOK 08/04 Q1023
Khartoum (HSSS) 19.11.2018 00:00 UTC Zobrazit METAR
HSSS 190000Z 36008KT CAVOK 23/M01 Q1014 NOSIG
Kigali (HRYR) 19.11.2018 00:00 UTC Zobrazit METAR
HRYR 190000Z 00000KT 9999 FEW025 SCT300 17/15 Q1020 NOSIG
Kingston (MKJP) 19.11.2018 00:00 UTC Zobrazit METAR
MKJP 190000Z 36005KT 9999 FEW022 28/22 Q1014
Kingstown (TVSV) 15.08.2018 22:00 UTC Zobrazit METAR
TVSV 152200Z 00000KT 9999 FEW022 SCT032 28/23 Q1014 NOSIG
Kinshasa (FZAA) 19.11.2018 00:00 UTC Zobrazit METAR
FZAA 190000Z 18008KT 9000 SCT018 BKN100 23/21 Q1014 NOSIG
Kittila (EFKT) 18.11.2018 23:50 UTC Zobrazit METAR
EFKT 182350Z AUTO 07001KT CAVOK M07/M08 Q1037
Klagenfurt (LOWK) 18.11.2018 23:50 UTC Zobrazit METAR
LOWK 182350Z AUTO VRB01KT 8000 -RASN SCT026 BKN080 00/M01 Q1014
Kortrijk-Wevelgem (EBKT) Zatím nenačteno  
Kosice (LZKZ) 19.11.2018 00:00 UTC Zobrazit METAR
LZKZ 190000Z 01016KT CAVOK 02/M09 Q1017
Krakow (EPKK) 19.11.2018 00:00 UTC Zobrazit METAR
EPKK 190000Z 07004KT 6000 -SN BKN007 OVC020 M01/M02 Q1020
Kuala Lumpur (WMKK) 19.11.2018 00:00 UTC Zobrazit METAR
WMKK 190000Z 01005KT 290V060 7000 FEW002 SCT140 BKN280 24/24 Q1012 NOSIG
Kuopio (EFKU) 18.11.2018 23:50 UTC Zobrazit METAR
EFKU 182350Z AUTO 01006KT 9999 BKN025 M02/M05 Q1040
Kuressaare (EEKE) 18.11.2018 16:50 UTC Zobrazit METAR
EEKE 181650Z 03008KT 9999 BKN044 03/01 Q1034
Kuwait (OKBK) 19.11.2018 00:00 UTC Zobrazit METAR
OKBK 190000Z 32006KT CAVOK 16/15 Q1019 NOSIG
Kyiv (UKBB) Zatím nenačteno  
Reklama

Počasí na Váš email

Emaily jsou bez reklamy a bez spamu



Odhlásit newsletter

Reklama


Lunární kalendář

  • 23.11.
  • 30.11.
  • 07.12.
  • 15.12.



Reklama


Reklama
Povinné ručení
Reklama



Reklama